createdAt,value
2022-12-22T00:02:21.996Z,68.50
2022-12-22T00:04:48.653Z,68.60
2022-12-22T00:07:15.113Z,68.70
2022-12-22T00:09:41.575Z,68.70
2022-12-22T00:12:08.023Z,68.60
2022-12-22T00:14:34.470Z,68.70
2022-12-22T00:17:01.036Z,68.90
2022-12-22T00:19:27.551Z,68.90
2022-12-22T00:21:54.018Z,68.90
2022-12-22T00:24:20.495Z,68.80
2022-12-22T00:26:46.973Z,68.80
2022-12-22T00:29:13.463Z,68.70
2022-12-22T00:31:39.919Z,68.90
2022-12-22T00:34:06.408Z,69.00
2022-12-22T00:36:32.886Z,68.80
2022-12-22T00:38:59.370Z,68.70
2022-12-22T00:41:25.862Z,68.60
2022-12-22T00:43:52.328Z,68.70
2022-12-22T00:46:18.814Z,68.70
2022-12-22T00:48:45.338Z,68.70
2022-12-22T00:51:11.823Z,68.70
2022-12-22T00:53:38.282Z,68.70
2022-12-22T00:56:04.755Z,68.70
2022-12-22T00:58:31.221Z,68.80
2022-12-22T01:00:57.728Z,68.80
2022-12-22T01:03:24.280Z,69.10
2022-12-22T01:05:50.753Z,68.90
2022-12-22T01:08:17.211Z,68.90
2022-12-22T01:10:43.731Z,69.20
2022-12-22T01:13:10.188Z,69.00
2022-12-22T01:15:36.715Z,68.90
2022-12-22T01:18:03.180Z,68.80
2022-12-22T01:20:29.645Z,68.90
2022-12-22T01:22:56.108Z,68.90
2022-12-22T01:25:22.614Z,68.80
2022-12-22T01:27:49.061Z,68.70
2022-12-22T01:30:15.548Z,69.00
2022-12-22T01:32:42.022Z,68.90
2022-12-22T01:35:08.515Z,68.90
2022-12-22T01:37:35.011Z,69.00
2022-12-22T01:40:01.505Z,69.20
2022-12-22T01:42:27.963Z,69.40
2022-12-22T01:44:54.428Z,69.50
2022-12-22T01:47:20.917Z,69.70
2022-12-22T01:49:47.389Z,69.60
2022-12-22T01:52:13.847Z,69.40
2022-12-22T01:54:40.299Z,69.30
2022-12-22T01:57:06.769Z,69.20
2022-12-22T01:59:33.308Z,69.20
2022-12-22T02:01:59.897Z,69.80
2022-12-22T02:04:26.450Z,69.60
2022-12-22T02:06:59.490Z,69.50
2022-12-22T02:09:26.600Z,69.50
2022-12-22T02:11:53.084Z,69.30
2022-12-22T02:14:21.535Z,69.50
2022-12-22T02:16:51.288Z,69.70
2022-12-22T02:19:17.731Z,69.70
2022-12-22T02:21:44.196Z,70.30
2022-12-22T02:24:10.690Z,70.20
2022-12-22T02:26:37.152Z,70.20
2022-12-22T02:29:03.609Z,70.20
2022-12-22T02:31:30.151Z,69.90
2022-12-22T02:33:56.625Z,70.00
2022-12-22T02:36:23.093Z,70.20
2022-12-22T02:38:49.568Z,70.10
2022-12-22T02:41:16.045Z,70.20
2022-12-22T02:43:42.528Z,70.30
2022-12-22T02:46:09.002Z,70.00
2022-12-22T02:48:35.533Z,70.20
2022-12-22T02:51:02.011Z,70.00
2022-12-22T02:53:28.487Z,70.10
2022-12-22T02:55:54.951Z,70.30
2022-12-22T02:58:21.509Z,70.00
2022-12-22T03:00:47.994Z,70.30
2022-12-22T03:03:14.913Z,70.60
2022-12-22T03:05:41.429Z,70.90
2022-12-22T03:08:08.668Z,70.50
2022-12-22T03:10:35.338Z,70.40
2022-12-22T03:13:01.835Z,70.40
2022-12-22T03:15:28.296Z,70.60
2022-12-22T03:17:54.772Z,70.70
2022-12-22T03:20:21.231Z,70.60
2022-12-22T03:22:47.700Z,70.70
2022-12-22T03:25:14.177Z,70.70
2022-12-22T03:27:40.658Z,70.70
2022-12-22T03:30:07.134Z,70.90
2022-12-22T03:32:33.598Z,70.50
2022-12-22T03:35:00.089Z,71.10
2022-12-22T03:37:26.603Z,70.90
2022-12-22T03:39:53.087Z,70.70
2022-12-22T03:42:19.557Z,71.00
2022-12-22T03:44:46.023Z,71.00
2022-12-22T03:47:12.628Z,70.70
2022-12-22T03:49:39.144Z,71.00
2022-12-22T03:52:05.613Z,70.70
2022-12-22T03:54:32.092Z,70.80
2022-12-22T03:56:58.552Z,70.70
2022-12-22T03:59:25.018Z,70.80
2022-12-22T04:01:51.689Z,70.80
2022-12-22T04:04:18.353Z,70.70
2022-12-22T04:06:44.840Z,70.50
2022-12-22T04:09:11.321Z,70.50
2022-12-22T04:11:37.793Z,70.70
2022-12-22T04:14:04.280Z,70.80
2022-12-22T04:16:30.798Z,70.30
2022-12-22T04:18:57.336Z,70.50
2022-12-22T04:21:23.801Z,70.70
2022-12-22T04:23:50.286Z,70.60
2022-12-22T04:26:16.767Z,70.40
2022-12-22T04:28:43.335Z,70.30
2022-12-22T04:31:09.826Z,70.20
2022-12-22T04:33:36.283Z,70.30
2022-12-22T04:36:02.764Z,70.50
2022-12-22T04:38:29.249Z,70.30
2022-12-22T04:40:55.709Z,70.50
2022-12-22T04:43:22.180Z,70.40
2022-12-22T04:45:48.698Z,70.20
2022-12-22T04:48:15.216Z,70.30
2022-12-22T04:50:41.685Z,70.20
2022-12-22T04:53:08.171Z,70.10
2022-12-22T04:55:34.644Z,70.30
2022-12-22T04:58:01.257Z,70.50
2022-12-22T05:00:27.729Z,70.20
2022-12-22T05:02:54.345Z,70.40
2022-12-22T05:05:20.867Z,70.20
2022-12-22T05:07:47.336Z,70.30
2022-12-22T05:10:13.821Z,70.30
2022-12-22T05:12:40.296Z,70.40
2022-12-22T05:15:06.787Z,70.40
2022-12-22T05:17:33.250Z,70.50
2022-12-22T05:19:59.730Z,70.30
2022-12-22T05:22:26.209Z,70.40
2022-12-22T05:24:52.693Z,70.40
2022-12-22T05:27:19.164Z,70.60
2022-12-22T05:29:45.616Z,70.60
2022-12-22T05:32:12.087Z,70.60
2022-12-22T05:34:38.561Z,70.80
2022-12-22T05:37:05.039Z,70.60
2022-12-22T05:39:31.529Z,70.50
2022-12-22T05:41:58.007Z,70.30
2022-12-22T05:44:24.460Z,70.20
2022-12-22T05:46:50.913Z,70.10
2022-12-22T05:49:17.358Z,70.10
2022-12-22T05:51:43.832Z,70.00
2022-12-22T05:54:10.321Z,70.00
2022-12-22T05:56:36.807Z,70.10
2022-12-22T05:59:03.263Z,70.10
2022-12-22T06:01:29.797Z,69.90
2022-12-22T06:04:00.120Z,69.70
2022-12-22T06:06:27.212Z,69.80
2022-12-22T06:08:53.689Z,69.80
2022-12-22T06:11:20.165Z,69.80
2022-12-22T06:13:46.642Z,69.90
2022-12-22T06:16:13.131Z,69.80
2022-12-22T06:18:39.673Z,69.80
2022-12-22T06:21:06.141Z,69.70
2022-12-22T06:23:32.621Z,69.50
2022-12-22T06:25:59.116Z,69.50
2022-12-22T06:28:25.585Z,69.40
2022-12-22T06:30:52.095Z,69.40
2022-12-22T06:33:18.606Z,69.70
2022-12-22T06:35:45.076Z,69.50
2022-12-22T06:38:11.536Z,69.40
2022-12-22T06:40:38.029Z,69.50
2022-12-22T06:43:08.745Z,69.40
2022-12-22T06:45:35.955Z,69.30
2022-12-22T06:48:02.416Z,69.40
2022-12-22T06:50:28.902Z,69.40
2022-12-22T06:52:55.353Z,69.40
2022-12-22T06:55:21.852Z,69.30
2022-12-22T06:57:48.321Z,69.30
2022-12-22T07:00:14.804Z,69.30
2022-12-22T07:02:41.471Z,69.30
2022-12-22T07:05:08.026Z,69.40
2022-12-22T07:07:34.496Z,69.30
2022-12-22T07:10:00.971Z,69.10
2022-12-22T07:12:27.426Z,69.30
2022-12-22T07:14:53.907Z,69.20
2022-12-22T07:17:20.395Z,69.10
2022-12-22T07:19:46.857Z,69.20
2022-12-22T07:22:13.332Z,69.30
2022-12-22T07:24:39.817Z,69.30
2022-12-22T07:27:06.277Z,69.30
2022-12-22T07:29:32.736Z,69.30
2022-12-22T07:31:59.205Z,69.20
2022-12-22T07:34:25.656Z,69.30
2022-12-22T07:36:52.142Z,69.30
2022-12-22T07:39:18.620Z,69.20
2022-12-22T07:41:45.111Z,69.20
2022-12-22T07:44:11.588Z,69.20
2022-12-22T07:46:38.142Z,69.20
2022-12-22T07:49:04.654Z,69.30
2022-12-22T07:51:31.118Z,69.40
2022-12-22T07:53:57.580Z,69.30
2022-12-22T07:56:24.071Z,69.30
2022-12-22T07:58:50.524Z,69.30
2022-12-22T08:01:16.979Z,69.40
2022-12-22T08:03:43.451Z,69.30
2022-12-22T08:06:09.986Z,69.40
2022-12-22T08:08:36.446Z,69.40
2022-12-22T08:11:02.911Z,69.50
2022-12-22T08:13:29.485Z,69.60
2022-12-22T08:15:56.051Z,69.60
2022-12-22T08:18:22.549Z,69.60
2022-12-22T08:20:49.049Z,69.60
2022-12-22T08:23:15.529Z,69.60
2022-12-22T08:25:43.083Z,69.70
2022-12-22T08:28:09.530Z,69.80
2022-12-22T08:30:36.000Z,70.00
2022-12-22T08:33:02.476Z,69.90
2022-12-22T08:35:28.944Z,69.90
2022-12-22T08:37:55.418Z,70.00
2022-12-22T08:40:21.881Z,70.00
2022-12-22T08:42:48.352Z,70.10
2022-12-22T08:45:14.820Z,70.10
2022-12-22T08:47:41.313Z,70.20
2022-12-22T08:50:07.774Z,70.20
2022-12-22T08:52:34.260Z,70.20
2022-12-22T08:55:00.732Z,70.20
2022-12-22T08:57:27.197Z,70.20
2022-12-22T08:59:53.661Z,70.30
2022-12-22T09:02:20.259Z,70.30
2022-12-22T09:04:46.870Z,70.30
2022-12-22T09:07:13.361Z,70.40
2022-12-22T09:09:39.840Z,70.40
2022-12-22T09:12:06.338Z,70.40
2022-12-22T09:14:32.830Z,70.40
2022-12-22T09:16:59.523Z,70.50
2022-12-22T09:19:26.071Z,70.50
2022-12-22T09:21:52.541Z,70.50
2022-12-22T09:24:19.011Z,70.50
2022-12-22T09:26:45.483Z,70.50
2022-12-22T09:29:12.902Z,70.60
2022-12-22T09:31:39.412Z,70.60
2022-12-22T09:34:05.910Z,70.70
2022-12-22T09:36:32.377Z,70.70
2022-12-22T09:38:58.869Z,70.80
2022-12-22T09:41:25.355Z,70.80
2022-12-22T09:43:51.827Z,70.90
2022-12-22T09:46:18.397Z,70.80
2022-12-22T09:48:44.905Z,70.90
2022-12-22T09:51:11.377Z,70.90
2022-12-22T09:53:37.870Z,70.80
2022-12-22T09:56:04.349Z,70.70
2022-12-22T09:58:30.832Z,70.70
2022-12-22T10:00:57.424Z,70.80
2022-12-22T10:03:23.964Z,70.80
2022-12-22T10:05:50.440Z,70.80
2022-12-22T10:08:16.900Z,70.70
2022-12-22T10:10:43.357Z,70.80
2022-12-22T10:13:09.838Z,70.90
2022-12-22T10:15:36.310Z,70.90
2022-12-22T10:18:02.784Z,70.80
2022-12-22T10:20:29.254Z,70.80
2022-12-22T10:22:55.732Z,71.00
2022-12-22T10:25:22.200Z,70.90
2022-12-22T10:27:51.583Z,70.90
2022-12-22T10:30:18.344Z,71.00
2022-12-22T10:32:44.832Z,70.90
2022-12-22T10:35:11.305Z,70.90
2022-12-22T10:37:37.899Z,70.90
2022-12-22T10:40:04.837Z,71.00
2022-12-22T10:42:31.310Z,71.10
2022-12-22T10:44:57.786Z,71.00
2022-12-22T10:47:24.631Z,71.00
2022-12-22T10:52:17.831Z,71.10
2022-12-22T10:54:45.026Z,71.10
2022-12-22T10:57:11.537Z,71.10
2022-12-22T10:59:38.033Z,71.10
2022-12-22T11:02:04.616Z,71.20
2022-12-22T11:04:31.165Z,71.20
2022-12-22T11:06:57.634Z,71.30
2022-12-22T11:09:33.709Z,71.30
2022-12-22T11:12:00.540Z,71.30
2022-12-22T11:14:27.027Z,71.40
2022-12-22T11:16:53.593Z,71.30
2022-12-22T11:19:20.112Z,71.40
2022-12-22T11:21:46.583Z,71.20
2022-12-22T11:24:13.045Z,71.40
2022-12-22T11:26:39.526Z,71.40
2022-12-22T11:29:05.995Z,71.50
2022-12-22T11:31:32.514Z,71.50
2022-12-22T11:33:59.030Z,71.50
2022-12-22T11:36:25.511Z,71.60
2022-12-22T11:38:51.970Z,71.40
2022-12-22T11:41:18.443Z,71.60
2022-12-22T11:43:44.916Z,71.70
2022-12-22T11:46:11.419Z,71.60
2022-12-22T11:48:37.926Z,71.60
2022-12-22T11:51:08.045Z,71.60
2022-12-22T11:53:36.075Z,71.50
2022-12-22T11:56:02.577Z,71.50
2022-12-22T11:58:29.064Z,71.60
2022-12-22T12:01:14.071Z,71.50
2022-12-22T12:03:42.067Z,71.50
2022-12-22T12:06:08.570Z,71.60
2022-12-22T12:08:35.043Z,71.60
2022-12-22T12:11:01.499Z,71.60
2022-12-22T12:13:34.803Z,71.70
2022-12-22T12:16:03.485Z,71.60
2022-12-22T12:18:29.981Z,71.60
2022-12-22T12:20:56.474Z,71.60
2022-12-22T12:23:22.941Z,71.60
2022-12-22T12:25:49.457Z,71.50
2022-12-22T12:28:15.901Z,71.60
2022-12-22T12:30:42.394Z,71.50
2022-12-22T12:33:08.866Z,71.60
2022-12-22T12:35:35.372Z,71.60
2022-12-22T12:38:01.850Z,71.50
2022-12-22T12:40:28.331Z,71.40
2022-12-22T12:42:54.797Z,71.50
2022-12-22T12:45:21.287Z,71.50
2022-12-22T12:47:47.749Z,71.50
2022-12-22T12:50:14.235Z,71.40
2022-12-22T12:52:40.682Z,71.40
2022-12-22T12:55:07.191Z,71.40
2022-12-22T12:57:33.662Z,71.40
2022-12-22T13:00:00.135Z,71.40
2022-12-22T13:02:26.915Z,71.30
2022-12-22T13:04:53.564Z,71.40
2022-12-22T13:07:20.029Z,71.30
2022-12-22T13:09:51.220Z,71.20
2022-12-22T13:12:22.800Z,71.30
2022-12-22T13:14:51.129Z,71.30
2022-12-22T13:17:17.621Z,71.30
2022-12-22T13:19:44.165Z,71.30
2022-12-22T13:22:10.683Z,71.20
2022-12-22T13:24:37.172Z,71.30
2022-12-22T13:27:03.707Z,71.30
2022-12-22T13:29:30.208Z,71.20
2022-12-22T13:31:57.826Z,71.20
2022-12-22T13:34:24.373Z,71.30
2022-12-22T13:36:50.879Z,71.20
2022-12-22T13:39:17.388Z,71.10
2022-12-22T13:41:43.883Z,71.20
2022-12-22T13:44:10.389Z,71.20
2022-12-22T13:46:36.906Z,71.10
2022-12-22T13:49:03.396Z,71.10
2022-12-22T13:51:29.893Z,71.00
2022-12-22T13:54:12.585Z,71.10
2022-12-22T13:56:39.376Z,71.00
2022-12-22T13:59:05.852Z,71.10
2022-12-22T14:01:32.543Z,71.00
2022-12-22T14:04:01.394Z,71.00
2022-12-22T14:06:28.892Z,71.00
2022-12-22T14:08:55.352Z,71.00
2022-12-22T14:11:21.795Z,71.00
2022-12-22T14:13:48.281Z,70.90
2022-12-22T14:16:14.795Z,70.90
2022-12-22T14:18:41.275Z,70.90
2022-12-22T14:21:07.727Z,70.90
2022-12-22T14:23:34.184Z,70.80
2022-12-22T14:26:00.703Z,70.70
2022-12-22T14:28:27.172Z,70.60
2022-12-22T14:30:53.655Z,70.70
2022-12-22T14:33:20.105Z,70.70
2022-12-22T14:35:46.570Z,70.90
2022-12-22T14:38:13.041Z,70.80
2022-12-22T14:40:39.518Z,70.80
2022-12-22T14:43:06.000Z,70.80
2022-12-22T14:45:32.532Z,70.80
2022-12-22T14:47:59.054Z,70.70
2022-12-22T14:50:25.542Z,70.80
2022-12-22T14:52:52.021Z,70.80
2022-12-22T14:55:18.504Z,70.80
2022-12-22T14:57:45.007Z,70.80
2022-12-22T15:00:11.472Z,70.80
2022-12-22T15:02:40.016Z,70.70
2022-12-22T15:05:06.873Z,70.70
2022-12-22T15:08:04.962Z,70.60
2022-12-22T15:10:19.902Z,70.50
2022-12-22T15:12:46.434Z,70.70
2022-12-22T15:15:13.324Z,70.50
2022-12-22T15:17:39.817Z,70.70
2022-12-22T15:20:06.290Z,70.50
2022-12-22T15:22:32.770Z,70.60
2022-12-22T15:24:59.244Z,70.60
2022-12-22T15:27:25.738Z,70.60
2022-12-22T15:29:52.199Z,70.50
2022-12-22T15:32:18.704Z,70.60
2022-12-22T15:34:45.183Z,70.50
2022-12-22T15:37:11.653Z,70.50
2022-12-22T15:39:38.136Z,70.50
2022-12-22T15:42:04.623Z,70.60
2022-12-22T15:44:35.143Z,70.60
2022-12-22T15:47:04.860Z,70.60
2022-12-22T15:49:31.342Z,70.50
2022-12-22T15:51:57.881Z,70.60
2022-12-22T15:54:24.365Z,70.50
2022-12-22T15:56:51.117Z,70.60
2022-12-22T15:59:17.588Z,70.60
2022-12-22T16:01:44.191Z,70.60
2022-12-22T16:04:10.827Z,70.50
2022-12-22T16:06:37.357Z,70.50
2022-12-22T16:09:03.862Z,70.40
2022-12-22T16:11:30.338Z,70.30
2022-12-22T16:13:56.785Z,70.40
2022-12-22T16:16:23.309Z,70.40
2022-12-22T16:18:49.842Z,70.40
2022-12-22T16:21:16.321Z,70.30
2022-12-22T16:23:42.810Z,70.20
2022-12-22T16:26:09.303Z,70.20
2022-12-22T16:28:35.763Z,70.40
2022-12-22T16:31:02.273Z,70.30
2022-12-22T16:33:28.782Z,70.30
2022-12-22T16:35:55.237Z,70.30
2022-12-22T16:38:21.736Z,70.20
2022-12-22T16:40:48.233Z,70.30
2022-12-22T16:45:58.734Z,70.30
2022-12-22T16:48:25.224Z,70.30
2022-12-22T16:50:51.689Z,70.30
2022-12-22T16:53:18.195Z,70.40
2022-12-22T16:55:44.678Z,70.30
2022-12-22T16:58:13.454Z,70.40
2022-12-22T17:00:40.498Z,70.50
2022-12-22T17:03:07.122Z,70.50
2022-12-22T17:05:36.331Z,70.50
2022-12-22T17:08:06.848Z,70.60
2022-12-22T17:10:33.304Z,70.60
2022-12-22T17:12:59.806Z,70.60
2022-12-22T17:15:26.288Z,70.70
2022-12-22T17:17:52.775Z,70.70
2022-12-22T17:20:19.249Z,70.70
2022-12-22T17:22:45.786Z,70.70
2022-12-22T17:25:12.275Z,70.80
2022-12-22T17:27:38.775Z,70.70
2022-12-22T17:30:05.229Z,70.70
2022-12-22T17:32:31.710Z,70.70
2022-12-22T17:34:58.177Z,70.60
2022-12-22T17:37:24.680Z,70.60
2022-12-22T17:39:51.251Z,70.70
2022-12-22T17:42:17.813Z,70.70
2022-12-22T17:44:44.322Z,70.60
2022-12-22T17:47:10.891Z,71.00
2022-12-22T17:49:37.369Z,70.70
2022-12-22T17:52:03.831Z,70.80
2022-12-22T17:54:30.284Z,70.60
2022-12-22T17:56:56.743Z,70.50
2022-12-22T17:59:28.650Z,70.40
2022-12-22T18:01:55.230Z,70.40
2022-12-22T18:04:21.794Z,70.40
2022-12-22T18:06:48.217Z,70.30
2022-12-22T18:09:14.702Z,70.30
2022-12-22T18:11:45.833Z,70.20
2022-12-22T18:14:12.692Z,70.30
2022-12-22T18:16:39.194Z,70.30
2022-12-22T18:19:05.716Z,70.20
2022-12-22T18:21:32.230Z,70.30
2022-12-22T18:23:58.712Z,70.30
2022-12-22T18:26:25.197Z,70.40
2022-12-22T18:28:51.682Z,70.40
2022-12-22T18:31:18.190Z,70.30
2022-12-22T18:33:44.723Z,70.30
2022-12-22T18:36:11.198Z,70.30
2022-12-22T18:38:37.678Z,70.40
2022-12-22T18:41:04.162Z,70.40
2022-12-22T18:43:30.642Z,70.40
2022-12-22T18:45:57.117Z,70.60
2022-12-22T18:48:23.604Z,70.50
2022-12-22T18:50:50.064Z,70.40
2022-12-22T18:53:16.546Z,70.30
2022-12-22T18:55:43.011Z,70.40
2022-12-22T18:58:09.482Z,70.40
2022-12-22T19:00:35.973Z,70.40
2022-12-22T19:03:02.618Z,70.40
2022-12-22T19:05:29.175Z,70.60
2022-12-22T19:07:55.648Z,70.20
2022-12-22T19:10:22.130Z,70.60
2022-12-22T19:12:48.614Z,70.50
2022-12-22T19:15:15.123Z,70.60
2022-12-22T19:17:41.590Z,70.80
2022-12-22T19:20:08.080Z,70.70
2022-12-22T19:22:34.555Z,70.50
2022-12-22T19:25:01.054Z,70.30
2022-12-22T19:27:27.495Z,70.30
2022-12-22T19:30:00.829Z,70.20
2022-12-22T19:32:29.877Z,70.20
2022-12-22T19:34:56.458Z,70.20
2022-12-22T19:37:22.917Z,70.20
2022-12-22T19:39:49.403Z,70.10
2022-12-22T19:42:15.878Z,70.10
2022-12-22T19:44:42.368Z,70.00
2022-12-22T19:47:08.843Z,70.10
2022-12-22T19:49:35.320Z,70.20
2022-12-22T19:52:01.800Z,70.10
2022-12-22T19:54:28.265Z,70.20
2022-12-22T19:56:54.747Z,70.10
2022-12-22T19:59:26.933Z,70.00
2022-12-22T20:01:56.379Z,70.10
2022-12-22T20:04:22.967Z,70.20
2022-12-22T20:06:49.443Z,70.20
2022-12-22T20:09:15.937Z,70.20
2022-12-22T20:11:42.420Z,70.20
2022-12-22T20:14:08.906Z,70.10
2022-12-22T20:16:35.419Z,70.30
2022-12-22T20:19:01.966Z,70.30
2022-12-22T20:21:28.460Z,70.40
2022-12-22T20:23:54.931Z,70.20
2022-12-22T20:26:21.398Z,70.40
2022-12-22T20:28:47.877Z,70.30
2022-12-22T20:31:14.407Z,70.30
2022-12-22T20:33:40.910Z,70.30
2022-12-22T20:36:07.388Z,70.40
2022-12-22T20:38:33.901Z,70.30
2022-12-22T20:41:00.374Z,70.30
2022-12-22T20:43:26.851Z,70.40
2022-12-22T20:45:53.390Z,70.40
2022-12-22T20:48:19.885Z,70.40
2022-12-22T20:50:46.369Z,70.50
2022-12-22T20:53:12.842Z,70.70
2022-12-22T20:55:39.333Z,70.70
2022-12-22T20:58:05.809Z,70.60
2022-12-22T21:00:32.297Z,70.80
2022-12-22T21:02:58.873Z,70.70
2022-12-22T21:05:25.447Z,70.60
2022-12-22T21:07:51.919Z,70.70
2022-12-22T21:10:18.407Z,70.70
2022-12-22T21:12:44.880Z,70.70
2022-12-22T21:15:11.369Z,70.70
2022-12-22T21:17:39.935Z,70.70
2022-12-22T21:20:09.764Z,70.60
2022-12-22T21:22:36.228Z,70.70
2022-12-22T21:25:02.694Z,70.80
2022-12-22T21:27:29.175Z,70.80
2022-12-22T21:29:55.645Z,70.80
2022-12-22T21:32:22.131Z,70.80
2022-12-22T21:34:48.593Z,70.70
2022-12-22T21:37:15.055Z,70.80
2022-12-22T21:39:41.519Z,71.00
2022-12-22T21:42:08.013Z,71.00
2022-12-22T21:44:34.502Z,71.10
2022-12-22T21:47:01.012Z,71.10
2022-12-22T21:49:27.567Z,71.20
2022-12-22T21:51:54.049Z,71.20
2022-12-22T21:54:20.526Z,71.30
2022-12-22T21:56:47.015Z,71.20
2022-12-22T21:59:13.484Z,71.20
2022-12-22T22:01:40.079Z,71.30
2022-12-22T22:04:06.738Z,71.40
2022-12-22T22:06:33.200Z,71.30
2022-12-22T22:08:59.698Z,71.20
2022-12-22T22:11:26.191Z,71.50
2022-12-22T22:13:52.643Z,71.50
2022-12-22T22:16:19.232Z,71.40
2022-12-22T22:18:45.754Z,71.40
2022-12-22T22:21:12.225Z,71.50
2022-12-22T22:23:38.683Z,71.60
2022-12-22T22:26:05.138Z,71.40
2022-12-22T22:28:31.605Z,71.50
2022-12-22T22:30:58.122Z,71.50
2022-12-22T22:33:24.665Z,71.50
2022-12-22T22:35:51.144Z,71.30
2022-12-22T22:38:17.639Z,71.50
2022-12-22T22:40:44.142Z,71.40
2022-12-22T22:43:10.593Z,71.50
2022-12-22T22:45:37.064Z,71.60
2022-12-22T22:48:09.538Z,71.40
2022-12-22T22:50:37.065Z,71.60
2022-12-22T22:53:03.533Z,71.60
2022-12-22T22:55:30.004Z,71.60
2022-12-22T22:57:56.471Z,71.60
2022-12-22T23:00:22.941Z,71.60
2022-12-22T23:02:49.537Z,71.60
2022-12-22T23:05:22.392Z,71.60
2022-12-22T23:07:49.491Z,71.70
2022-12-22T23:10:15.956Z,71.70
2022-12-22T23:12:42.468Z,71.70
2022-12-22T23:15:08.950Z,71.50
2022-12-22T23:17:35.426Z,71.60
2022-12-22T23:20:02.281Z,71.70
2022-12-22T23:22:28.770Z,71.70
2022-12-22T23:24:55.229Z,71.80
2022-12-22T23:27:21.698Z,71.70
2022-12-22T23:29:48.183Z,71.70
2022-12-22T23:32:14.668Z,71.80
2022-12-22T23:34:41.158Z,71.70
2022-12-22T23:37:08.527Z,71.70
2022-12-22T23:39:37.447Z,71.70
2022-12-22T23:42:03.891Z,71.80
2022-12-22T23:44:30.370Z,71.70
2022-12-22T23:46:56.890Z,71.80
2022-12-22T23:49:23.404Z,71.80
2022-12-22T23:51:49.856Z,71.70
2022-12-22T23:54:16.355Z,71.70
2022-12-22T23:56:42.838Z,71.60
2022-12-22T23:59:09.362Z,71.60
